Santa Rosa, CA (95406)

1:14 AM PDT on September 01, 2014 (GMT -0700)
Murdock Terrace | Change Station
CLOSE
Current Station
Personal Weather Station
Location: Santa Rosa, CA
Elevation: 184 ft
Nearby Weather Stations

Elev 184 ft 38.46 °N, 122.71 °W | Updated 10 minutes ago

Clear
Clear
57.7 °F
Feels Like 57.7 °F
N
0.0
Wind Variable Wind from ENE

Today
High -- | Low -- °F
--% Chance of Precip.
Yesterday
High -- | Low -- °F
Precip. -- in
6:40 AM 7:40 PM
Waxing Crescent, 38% visible
Pressure 29.80 in
Visibility 10.0 miles
Clouds Clear
Dew Point 52 °F
Humidity 82%
Rainfall 0.00 in
Snow Depth Not available.
UV 0 out of 12
Pollen 7.60 out of 12
Air Quality Not available.
Flu Activity Not available.
METAR KSTS 010753Z AUTO 00000KT 10SM CLR 14/10 A2982 RMK AO2 SLP091 T01390100 403330117

More Conditions Fewer Conditions

Pressure 29.80 in
Visibility 10.0 miles
Clouds Clear
Dew Point 52 °F
Humidity 82%
Rainfall 0.00 in
Snow Depth Not available.
UV 0 out of 12
Pollen 7.60 out of 12
Air Quality Not available.
Flu Activity Not available.
METAR KSTS 010753Z AUTO 00000KT 10SM CLR 14/10 A2982 RMK AO2 SLP091 T01390100 403330117

More Conditions Fewer Conditions

10-Day Weather Forecast

Almanac

Astronomy

Sep. 01, 2014 Rise Set
Actual Time 6:40 AM PDT 7:40 PM PDT
Civil Twilight 6:13 AM PDT 8:07 PM PDT
Nautical Twilight 5:40 AM PDT 8:39 PM PDT
Astronomical Twilight 5:07 AM PDT 9:13 PM PDT
Moon 1:26 PM PDT 11:51 PM PDT
Length of Visible Light 13h 54m
Length of Day
13h 00m
Tomorrow will be 2m 24s shorter.
Waxing Crescent, 38% of the Moon is Illuminated
Today
Waxing Crescent
Sep 2
First Quarter
Sep 8
Full
Sep 15
Last Quarter
Sep 24
New

Today's Extremes

State Highs State Lows

Community

WunderPhotos

Upload Photos

1,749,175 photos uploaded!

Nearby

Air Quality

  Air Quality AQ Index Pollutant
Sunday Good
PM2.5
Monday Good
PM2.5
Tuesday Good
PM2.5
Wednesday Good
PM2.5
Thursday Good
PM2.5
Friday Good
PM2.5

Snow Depth

Station Depth Elevation
CSS Lab 3 in 6900 ft
Rubicon #2 0 in 7500 ft
Echo Peak 0 in 7800 ft
Tahoe City Cross 0 in 6750 ft
Fallen Leaf 0 in 6300 ft

Earthquake Activity

City Distance Mag. Time & Date
Green Valley, California 33 miles 2.5 6:37 AM PDT
2014-08-31
Napa, California 26 miles 3.2 1:56 AM PDT
2014-08-31
Gonzales, California 150 miles 2.7 9:48 PM PDT
2014-08-30
Ridgemark, California 144 miles 3.4 4:32 PM PDT
2014-08-29
Minimum magnitude displayed is 2.5.

Coastal Water Temperatures

Place Temperature
Point Reyes, CA 59.0 °F
Arena Cove, CA 55.0 °F
San Francisco, CA 66.0 °F
Richmond, CA 68.0 °F

Nearby Weather Stations